Time;durP1;ratioP1;P1;durP2;ratioP2;P2;SDS_P1;SDS_P2;PMS_P1;PMS_P2;Temp;Humidity;BMP_temperature;BMP_pressure;BME280_temperature;BME280_humidity;BME280_pressure;Samples;Min_cycle;Max_cycle;Signal;HPM_P1;HPM_P2
2024/01/26 00:00:07;;;;;;;;;;;;;;;26.58;39.24;95312.66;5049060;28;7148;-43
2024/01/26 00:02:34;;;;;;;;;;;;;;;26.58;39.55;95320.94;5035379;28;7213;-41
2024/01/26 00:05:19;;;;;;;;;;;;;;;26.58;39.36;95305.13;5044005;28;7522;-42
2024/01/26 00:07:47;;;;;;;;;;;;;;;26.55;39.79;95303.38;5051403;28;7391;-43
2024/01/26 00:10:51;;;;;;;;;;;;;;;26.57;39.40;95294.59;5046504;28;9090;-43
2024/01/26 00:13:23;;;;;;;;;;;;;;;26.56;39.38;95299.34;5052294;28;7543;-42
2024/01/26 00:15:57;;;;;;;;;;;;;;;26.56;39.47;95304.13;5043357;28;7186;-42
2024/01/26 00:18:32;;;;;;;;;;;;;;;26.54;39.24;95296.34;5037771;28;9418;-42
2024/01/26 00:20:59;;;;;;;;;;;;;;;26.54;39.50;95301.09;5040475;28;7307;-43
2024/01/26 00:23:32;;;;;;;;;;;;;;;26.55;39.39;95313.66;5050044;28;7070;-41
2024/01/26 00:25:59;;;;;;;;;;;;;;;26.56;39.46;95306.88;5042773;28;7346;-42
2024/01/26 00:28:36;;;;;;;;;;;;;;;26.57;39.35;95319.44;5035170;28;6988;-44
2024/01/26 00:31:21;;;;;;;;;;;;;;;26.58;39.15;95318.16;5035356;28;7295;-42
2024/01/26 00:33:48;;;;;;;;;;;;;;;26.56;39.31;95315.91;5048423;28;7238;-44
2024/01/26 00:36:19;;;;;;;;;;;;;;;26.54;38.90;95309.38;5046770;28;7259;-43
2024/01/26 00:39:19;;;;;;;;;;;;;;;26.55;39.29;95316.41;5043682;28;8822;-42
2024/01/26 00:41:55;;;;;;;;;;;;;;;26.53;39.26;95332.72;5045541;28;7320;-42
2024/01/26 00:44:21;;;;;;;;;;;;;;;26.54;39.29;95339.72;5041946;28;7352;-43
2024/01/26 00:47:18;;;;;;;;;;;;;;;26.56;38.98;95340.00;5042836;28;7593;-42
2024/01/26 00:50:04;;;;;;;;;;;;;;;26.54;39.21;95323.19;5010683;28;7490;-43
2024/01/26 00:52:30;;;;;;;;;;;;;;;26.53;39.67;95329.97;5027466;28;9253;-43
2024/01/26 00:54:58;;;;;;;;;;;;;;;26.53;38.87;95335.47;5010097;28;9396;-42
2024/01/26 00:57:24;;;;;;;;;;;;;;;26.51;39.09;95337.97;5021051;28;7305;-43
2024/01/26 00:59:50;;;;;;;;;;;;;;;26.52;39.04;95343.00;5006407;28;7013;-42
2024/01/26 01:02:26;;;;;;;;;;;;;;;26.49;39.04;95338.44;4996628;28;7427;-42
2024/01/26 01:05:01;;;;;;;;;;;;;;;26.53;39.19;95335.47;5034053;28;9060;-42
2024/01/26 01:07:53;;;;;;;;;;;;;;;26.54;39.14;95339.72;5026747;28;7040;-44
2024/01/26 01:10:19;;;;;;;;;;;;;;;26.52;39.51;95347.75;5015121;28;7291;-43
2024/01/26 01:13:00;;;;;;;;;;;;;;;26.52;39.03;95345.75;5025679;28;7262;-43
2024/01/26 01:15:31;;;;;;;;;;;;;;;26.51;39.33;95346.25;5006083;28;7658;-41
2024/01/26 01:17:57;;;;;;;;;;;;;;;26.51;38.80;95354.53;5009585;28;8927;-42
2024/01/26 01:20:23;;;;;;;;;;;;;;;26.53;38.80;95352.03;5009982;28;9524;-36
2024/01/26 01:22:58;;;;;;;;;;;;;;;26.52;38.95;95348.50;5030891;28;7284;-36
2024/01/26 01:25:34;;;;;;;;;;;;;;;26.52;39.17;95351.25;5009473;28;7216;-36
2024/01/26 01:28:21;;;;;;;;;;;;;;;26.51;39.21;95346.25;5042031;28;7339;-36
2024/01/26 01:31:25;;;;;;;;;;;;;;;26.53;38.75;95341.00;5034581;28;7355;-36
2024/01/26 01:34:43;;;;;;;;;;;;;;;26.53;39.71;95346.50;5036086;28;7113;-36
2024/01/26 01:37:27;;;;;;;;;;;;;;;26.50;39.02;95344.72;5011364;28;7243;-36
2024/01/26 01:40:12;;;;;;;;;;;;;;;26.50;39.25;95344.72;5014461;28;9759;-36
2024/01/26 01:42:38;;;;;;;;;;;;;;;26.51;39.33;95346.25;5014810;28;8187;-36
2024/01/26 01:45:32;;;;;;;;;;;;;;;26.50;38.96;95351.00;5015382;28;7196;-36
2024/01/26 01:48:08;;;;;;;;;;;;;;;26.50;38.56;95351.00;5014076;28;9402;-36
2024/01/26 01:50:35;;;;;;;;;;;;;;;26.50;38.55;95359.28;5023875;28;9064;-36
2024/01/26 01:53:04;;;;;;;;;;;;;;;26.51;38.86;95357.28;5012669;28;9039;-36
2024/01/26 01:55:30;;;;;;;;;;;;;;;26.52;38.55;95353.25;5013227;28;9472;-35
2024/01/26 01:57:57;;;;;;;;;;;;;;;26.51;39.01;95357.28;4996713;28;7013;-36
2024/01/26 02:00:28;;;;;;;;;;;;;;;26.52;38.85;95358.78;5015074;28;7084;-36
2024/01/26 02:03:04;;;;;;;;;;;;;;;26.53;38.52;95368.59;5015722;28;7605;-36
2024/01/26 02:05:45;;;;;;;;;;;;;;;26.51;39.10;95358.03;5015901;28;7005;-36
2024/01/26 02:08:13;;;;;;;;;;;;;;;26.52;38.60;95365.06;5015436;28;7253;-36
2024/01/26 02:10:51;;;;;;;;;;;;;;;26.52;38.91;95356.03;5016043;28;9297;-36
2024/01/26 02:13:24;;;;;;;;;;;;;;;26.52;38.60;95359.53;5023388;28;6978;-36
2024/01/26 02:16:01;;;;;;;;;;;;;;;26.51;38.95;95354.53;5033008;28;7230;-36
2024/01/26 02:18:32;;;;;;;;;;;;;;;26.54;39.13;95353.53;5022303;28;7278;-36
2024/01/26 02:21:15;;;;;;;;;;;;;;;26.52;38.40;95351.25;5043072;28;7024;-35
2024/01/26 02:23:43;;;;;;;;;;;;;;;26.51;38.81;95357.28;5040671;28;7077;-36
2024/01/26 02:26:13;;;;;;;;;;;;;;;26.53;38.40;95354.78;5050413;28;7244;-36
2024/01/26 02:28:43;;;;;;;;;;;;;;;26.52;38.68;95343.00;5048725;28;7303;-36
2024/01/26 02:31:29;;;;;;;;;;;;;;;26.52;39.05;95344.97;5042632;28;7247;-56
2024/01/26 02:33:59;;;;;;;;;;;;;;;26.51;38.92;95349.75;5036979;28;7243;-57
2024/01/26 02:36:44;;;;;;;;;;;;;;;26.53;39.18;95339.00;5051281;28;7069;-56
2024/01/26 02:39:20;;;;;;;;;;;;;;;26.53;38.71;95339.00;5061504;28;6996;-56
2024/01/26 02:41:54;;;;;;;;;;;;;;;26.53;38.81;95335.47;5055294;28;9661;-56
2024/01/26 02:44:22;;;;;;;;;;;;;;;26.54;39.14;95328.69;5060621;28;9621;-56
2024/01/26 02:46:55;;;;;;;;;;;;;;;26.55;38.60;95330.22;5060727;28;9109;-57
2024/01/26 02:49:21;;;;;;;;;;;;;;;26.53;38.22;95336.25;5039547;28;9046;-57
2024/01/26 02:51:47;;;;;;;;;;;;;;;26.53;38.32;95333.47;5039877;28;7015;-57
2024/01/26 02:54:13;;;;;;;;;;;;;;;26.52;38.89;95343.00;5039165;28;7283;-57
2024/01/26 02:56:39;;;;;;;;;;;;;;;26.50;38.97;95334.44;5036082;28;9116;-57
2024/01/26 02:59:05;;;;;;;;;;;;;;;26.50;38.71;95344.72;5042195;28;7001;-56
2024/01/26 03:01:44;;;;;;;;;;;;;;;26.53;38.34;95329.97;5047790;28;7382;-56
2024/01/26 03:04:18;;;;;;;;;;;;;;;26.54;38.57;95334.22;5047324;28;7457;-56
2024/01/26 03:06:47;;;;;;;;;;;;;;;26.54;38.77;95325.94;5044056;28;9595;-56
2024/01/26 03:09:14;;;;;;;;;;;;;;;26.51;38.81;95341.47;5041508;28;6990;-56
2024/01/26 03:11:53;;;;;;;;;;;;;;;26.53;38.16;95338.22;5038718;28;7294;-56
2024/01/26 03:14:34;;;;;;;;;;;;;;;26.52;38.61;95336.72;5035555;28;7259;-57
2024/01/26 03:17:13;;;;;;;;;;;;;;;26.51;38.24;95338.72;5050514;28;7276;-56
2024/01/26 03:19:50;;;;;;;;;;;;;;;26.52;38.45;95344.97;5036593;28;7200;-56
2024/01/26 03:22:26;;;;;;;;;;;;;;;26.52;38.29;95343.00;5039279;28;8980;-56
2024/01/26 03:25:08;;;;;;;;;;;;;;;26.52;38.14;95344.97;5056151;28;8730;-57
2024/01/26 03:27:38;;;;;;;;;;;;;;;26.52;38.56;95344.97;5039641;28;9070;-56
2024/01/26 03:30:25;;;;;;;;;;;;;;;26.53;38.30;95341.75;5041137;28;9527;-56
2024/01/26 03:33:03;;;;;;;;;;;;;;;26.54;38.22;95339.72;5045814;28;9192;-57
2024/01/26 03:35:36;;;;;;;;;;;;;;;26.52;38.50;95339.47;5043698;28;8974;-56
2024/01/26 03:38:02;;;;;;;;;;;;;;;26.53;38.33;95346.50;5037832;28;7606;-56
2024/01/26 03:40:32;;;;;;;;;;;;;;;26.53;38.78;95349.28;5051677;28;7250;-39
2024/01/26 03:42:58;;;;;;;;;;;;;;;26.53;38.06;95344.50;5050802;28;8769;-39
2024/01/26 03:45:35;;;;;;;;;;;;;;;26.53;38.50;95346.50;5059467;28;7152;-39
2024/01/26 03:48:14;;;;;;;;;;;;;;;26.52;38.80;95347.75;5057580;28;7498;-39
2024/01/26 03:50:55;;;;;;;;;;;;;;;26.53;38.78;95343.75;5052555;28;8157;-39
2024/01/26 03:53:23;;;;;;;;;;;;;;;26.51;38.15;95343.50;5058138;28;9458;-39
2024/01/26 03:55:49;;;;;;;;;;;;;;;26.53;38.67;95339.00;5046744;28;7062;-39
2024/01/26 03:58:17;;;;;;;;;;;;;;;26.53;38.72;95341.00;5038034;28;9584;-39
2024/01/26 04:00:56;;;;;;;;;;;;;;;26.53;38.14;95349.28;5036305;28;8740;-39
2024/01/26 04:03:28;;;;;;;;;;;;;;;26.53;38.07;95349.28;5035982;28;8809;-39
2024/01/26 04:05:57;;;;;;;;;;;;;;;26.50;38.72;95344.72;5036515;28;9038;-39
2024/01/26 04:08:30;;;;;;;;;;;;;;;26.53;38.29;95352.03;5057390;28;9068;-39
2024/01/26 04:11:10;;;;;;;;;;;;;;;26.51;38.31;95354.53;5041212;28;9166;-39
2024/01/26 04:13:56;;;;;;;;;;;;;;;26.52;38.06;95358.78;5040319;28;7065;-39
2024/01/26 04:16:30;;;;;;;;;;;;;;;26.51;38.49;95368.31;5045902;28;7190;-39
2024/01/26 04:18:56;;;;;;;;;;;;;;;26.51;38.61;95357.28;5053096;28;9005;-39
2024/01/26 04:21:34;;;;;;;;;;;;;;;26.51;38.70;95365.56;5051127;28;9102;-39
2024/01/26 04:24:27;;;;;;;;;;;;;;;26.52;38.28;95365.06;5035973;28;7232;-39
2024/01/26 04:26:52;;;;;;;;;;;;;;;26.52;38.78;95361.53;5050592;28;7389;-38
2024/01/26 04:29:18;;;;;;;;;;;;;;;26.53;38.20;95365.81;5042230;28;9062;-39
2024/01/26 04:31:49;;;;;;;;;;;;;;;26.52;38.10;95364.31;5046631;28;7467;-40
2024/01/26 04:34:15;;;;;;;;;;;;;;;26.52;37.88;95361.53;5054510;28;9105;-40
2024/01/26 04:36:48;;;;;;;;;;;;;;;26.51;38.56;95349.75;5058529;28;7632;-39
2024/01/26 04:39:14;;;;;;;;;;;;;;;26.52;38.44;95358.78;5040010;28;7203;-39
2024/01/26 04:41:43;;;;;;;;;;;;;;;26.50;37.98;95362.03;5054132;28;7053;-39
2024/01/26 04:44:10;;;;;;;;;;;;;;;26.51;38.56;95357.28;5047999;28;7201;-39
2024/01/26 04:46:57;;;;;;;;;;;;;;;26.52;38.13;95345.75;5046794;28;7061;-39
2024/01/26 04:49:27;;;;;;;;;;;;;;;26.52;38.61;95344.97;5036712;28;8782;-39
2024/01/26 04:52:04;;;;;;;;;;;;;;;26.53;38.17;95336.25;5035968;28;7508;-39
2024/01/26 04:54:38;;;;;;;;;;;;;;;26.50;38.02;95336.44;5036012;28;7016;-38
2024/01/26 04:57:06;;;;;;;;;;;;;;;26.53;38.34;95341.00;5043217;28;9027;-38
2024/01/26 04:59:34;;;;;;;;;;;;;;;26.51;37.87;95340.72;5045413;28;8740;-38
2024/01/26 05:02:18;;;;;;;;;;;;;;;26.51;38.41;95346.25;5036694;28;7231;-38
2024/01/26 05:04:44;;;;;;;;;;;;;;;26.53;38.17;95349.28;5045029;28;8752;-38
2024/01/26 05:07:10;;;;;;;;;;;;;;;26.51;37.67;95349.75;5034049;28;6974;-38
2024/01/26 05:09:37;;;;;;;;;;;;;;;26.52;38.09;95350.50;5042731;28;6997;-38
2024/01/26 05:12:07;;;;;;;;;;;;;;;26.51;38.40;95355.25;5035239;28;8778;-38
2024/01/26 05:14:37;;;;;;;;;;;;;;;26.49;37.99;95354.28;5041229;28;8931;-38
2024/01/26 05:17:04;;;;;;;;;;;;;;;26.48;38.23;95358.25;5041715;28;6988;-38
2024/01/26 05:19:32;;;;;;;;;;;;;;;26.47;38.10;95354.00;5038746;28;7322;-40
2024/01/26 05:22:02;;;;;;;;;;;;;;;26.52;38.61;95364.31;5053621;28;7393;-38
2024/01/26 05:24:30;;;;;;;;;;;;;;;26.47;37.93;95367.81;5040120;28;6985;-38
2024/01/26 05:26:56;;;;;;;;;;;;;;;26.50;38.17;95377.84;5038123;28;8783;-38
2024/01/26 05:29:23;;;;;;;;;;;;;;;26.50;37.88;95389.63;5036947;28;9555;-38
2024/01/26 05:31:49;;;;;;;;;;;;;;;26.48;38.44;95391.38;5046587;28;7012;-38
2024/01/26 05:34:21;;;;;;;;;;;;;;;26.48;38.46;95396.88;5041678;28;6961;-38
2024/01/26 05:36:50;;;;;;;;;;;;;;;26.48;38.15;95394.13;5052612;28;7251;-38
2024/01/26 05:39:18;;;;;;;;;;;;;;;26.45;38.02;95382.06;5041465;28;7165;-38
2024/01/26 05:41:46;;;;;;;;;;;;;;;26.46;38.16;95388.34;5037708;28;7306;-38
2024/01/26 05:44:12;;;;;;;;;;;;;;;26.44;38.21;95394.38;5038897;28;7112;-38
2024/01/26 05:46:39;;;;;;;;;;;;;;;26.47;38.10;95398.16;5035582;28;7251;-38
2024/01/26 05:49:06;;;;;;;;;;;;;;;26.47;37.96;95396.13;5046665;28;9153;-38
2024/01/26 05:51:50;;;;;;;;;;;;;;;26.47;37.88;95400.91;5042910;28;7856;-38
2024/01/26 05:54:16;;;;;;;;;;;;;;;26.44;38.10;95397.13;5044580;28;9061;-38
2024/01/26 05:56:45;;;;;;;;;;;;;;;26.45;38.35;95395.09;5043867;28;9266;-37
2024/01/26 05:59:11;;;;;;;;;;;;;;;26.45;38.52;95386.81;5050087;28;8764;-38
2024/01/26 06:01:37;;;;;;;;;;;;;;;26.46;37.94;95382.84;5039204;28;9250;-37
2024/01/26 06:04:15;;;;;;;;;;;;;;;26.46;38.71;95389.13;5035247;28;7315;-36
2024/01/26 06:06:44;;;;;;;;;;;;;;;26.43;38.35;95392.84;5035845;28;7381;-36
2024/01/26 06:09:50;;;;;;;;;;;;;;;26.44;38.22;95396.38;5039624;28;7373;-36
2024/01/26 06:12:40;;;;;;;;;;;;;;;26.43;38.84;95395.59;5043543;28;7212;-36
2024/01/26 06:15:41;;;;;;;;;;;;;;;26.44;38.55;95385.34;5049975;28;7077;-36
2024/01/26 06:18:23;;;;;;;;;;;;;;;26.45;38.72;95381.31;4997038;28;6944;-36
2024/01/26 06:21:04;;;;;;;;;;;;;;;26.45;38.28;95389.59;5029674;28;7048;-36
2024/01/26 06:24:18;;;;;;;;;;;;;;;26.46;38.57;95388.34;5009513;28;7225;-36
2024/01/26 06:27:00;;;;;;;;;;;;;;;26.44;38.52;95379.81;4957449;28;7545;-36
2024/01/26 06:29:26;;;;;;;;;;;;;;;26.45;38.52;95387.59;4957251;28;6991;-36
2024/01/26 06:31:53;;;;;;;;;;;;;;;26.44;38.70;95385.34;4957397;28;7223;-36
2024/01/26 06:34:19;;;;;;;;;;;;;;;26.46;38.74;95391.09;4967983;28;8224;-36
2024/01/26 06:36:51;;;;;;;;;;;;;;;26.51;38.06;95379.34;4965067;28;6962;-36
2024/01/26 06:39:26;;;;;;;;;;;;;;;26.48;38.23;95374.81;4971608;28;7234;-36
2024/01/26 06:42:01;;;;;;;;;;;;;;;26.51;38.55;95387.63;4954715;28;7295;-36
2024/01/26 06:44:53;;;;;;;;;;;;;;;26.46;38.01;95388.34;4971672;28;7822;-36
2024/01/26 06:47:22;;;;;;;;;;;;;;;26.42;38.23;95387.81;4953065;28;7211;-36
2024/01/26 06:49:48;;;;;;;;;;;;;;;26.43;38.23;95389.31;4953742;28;9081;-36
2024/01/26 06:52:13;;;;;;;;;;;;;;;26.49;37.79;95390.13;4970637;28;7219;-36
2024/01/26 06:54:39;;;;;;;;;;;;;;;26.46;37.98;95393.88;4983718;28;7039;-37
2024/01/26 06:57:08;;;;;;;;;;;;;;;26.46;38.11;95393.88;4975641;28;9085;-36
2024/01/26 06:59:37;;;;;;;;;;;;;;;26.47;38.58;95395.38;4985394;28;7642;-36
2024/01/26 07:02:24;;;;;;;;;;;;;;;26.46;38.41;95399.38;4977849;28;6987;-36
2024/01/26 07:04:54;;;;;;;;;;;;;;;26.47;38.12;95398.16;5033255;28;9227;-36
2024/01/26 07:07:32;;;;;;;;;;;;;;;26.47;37.95;95389.88;5035804;28;7231;-36
2024/01/26 07:09:58;;;;;;;;;;;;;;;26.46;38.22;95388.34;5040473;28;6980;-36
2024/01/26 07:12:26;;;;;;;;;;;;;;;26.44;38.37;95393.59;5039910;28;9157;-36
2024/01/26 07:14:52;;;;;;;;;;;;;;;26.44;38.28;95393.59;5046121;28;9190;-36
2024/01/26 07:17:21;;;;;;;;;;;;;;;26.45;38.25;95378.56;5030320;28;9092;-36
2024/01/26 07:19:55;;;;;;;;;;;;;;;26.43;38.08;95372.78;5037553;28;9031;-37
2024/01/26 07:22:25;;;;;;;;;;;;;;;26.44;38.18;95375.06;5037498;28;9526;-39
2024/01/26 07:25:00;;;;;;;;;;;;;;;26.43;38.22;95370.00;5034020;28;8838;-38
2024/01/26 07:27:30;;;;;;;;;;;;;;;26.42;38.40;95372.03;5045203;28;7466;-38
2024/01/26 07:30:02;;;;;;;;;;;;;;;26.42;38.33;95363.00;5043872;28;8722;-37
2024/01/26 07:32:36;;;;;;;;;;;;;;;26.43;38.73;95351.47;5043976;28;6992;-38
2024/01/26 07:35:03;;;;;;;;;;;;;;;26.42;38.07;95347.22;5032416;28;7523;-38
2024/01/26 07:37:39;;;;;;;;;;;;;;;26.45;38.18;95356.47;5036084;28;6989;-37
2024/01/26 07:40:08;;;;;;;;;;;;;;;26.47;38.44;95351.25;5037027;28;8782;-38
2024/01/26 07:42:35;;;;;;;;;;;;;;;26.45;38.60;95348.19;5034767;28;9092;-37
2024/01/26 07:45:03;;;;;;;;;;;;;;;26.46;37.95;95349.72;5038744;28;7237;-38
2024/01/26 07:47:34;;;;;;;;;;;;;;;26.46;38.57;95352.47;5038701;28;7134;-37
2024/01/26 07:50:05;;;;;;;;;;;;;;;26.45;37.99;95350.97;5049489;28;7516;-38
2024/01/26 07:52:31;;;;;;;;;;;;;;;26.46;38.33;95366.28;5036031;28;6991;-37
2024/01/26 07:54:57;;;;;;;;;;;;;;;26.46;38.18;95369.81;5037770;28;7266;-38
2024/01/26 07:57:25;;;;;;;;;;;;;;;26.46;38.33;95366.28;5031732;28;9503;-38
2024/01/26 07:59:51;;;;;;;;;;;;;;;26.45;38.11;95371.03;5038265;28;7440;-38
2024/01/26 08:02:19;;;;;;;;;;;;;;;26.46;37.82;95375.31;5030055;28;7353;-38
2024/01/26 08:04:45;;;;;;;;;;;;;;;26.46;38.33;95371.78;5037209;28;8972;-38
2024/01/26 08:07:11;;;;;;;;;;;;;;;26.45;37.91;95362.75;5045236;28;7072;-38
2024/01/26 08:09:37;;;;;;;;;;;;;;;26.47;38.27;95362.28;5043953;28;7235;-37
2024/01/26 08:12:07;;;;;;;;;;;;;;;26.45;38.18;95351.72;5044835;28;7056;-38
2024/01/26 08:14:35;;;;;;;;;;;;;;;26.47;38.43;95359.53;5047973;28;8745;-37
2024/01/26 08:17:01;;;;;;;;;;;;;;;26.48;38.29;95355.50;5050183;28;7336;-38
2024/01/26 08:19:29;;;;;;;;;;;;;;;26.45;38.69;95342.69;5044791;28;7453;-38
2024/01/26 08:21:57;;;;;;;;;;;;;;;26.48;38.34;95345.22;5040842;28;6995;-38
2024/01/26 08:24:23;;;;;;;;;;;;;;;26.47;38.37;95345.72;5043006;28;7208;-38
2024/01/26 08:26:49;;;;;;;;;;;;;;;26.49;38.46;95357.03;5045090;28;7210;-39
2024/01/26 08:29:15;;;;;;;;;;;;;;;26.51;38.47;95363.53;5046809;28;9288;-38
2024/01/26 08:31:47;;;;;;;;;;;;;;;26.51;38.33;95360.03;5038805;28;6959;-39
2024/01/26 08:34:13;;;;;;;;;;;;;;;26.50;38.64;95361.28;5037661;28;7243;-39
2024/01/26 08:36:43;;;;;;;;;;;;;;;26.51;38.40;95368.31;5035985;28;7068;-38
2024/01/26 08:39:11;;;;;;;;;;;;;;;26.50;39.05;95358.53;5040921;28;7069;-39
2024/01/26 08:41:39;;;;;;;;;;;;;;;26.53;38.55;95357.53;5040105;28;8740;-38
2024/01/26 08:44:05;;;;;;;;;;;;;;;26.55;37.99;95355.03;5047106;28;7347;-38
2024/01/26 08:46:31;;;;;;;;;;;;;;;26.53;39.15;95355.56;5038624;28;8729;-38
2024/01/26 08:49:06;;;;;;;;;;;;;;;26.56;38.47;95353.78;5056424;28;7156;-39
2024/01/26 08:51:47;;;;;;;;;;;;;;;26.56;38.61;95354.53;5042645;28;7370;-38
2024/01/26 08:54:13;;;;;;;;;;;;;;;26.57;38.47;95355.31;5043955;28;8835;-38
2024/01/26 08:56:41;;;;;;;;;;;;;;;26.57;38.52;95347.03;5048905;28;7108;-40
2024/01/26 08:59:08;;;;;;;;;;;;;;;26.58;38.45;95362.31;5057610;28;9054;-38
2024/01/26 09:01:37;;;;;;;;;;;;;;;26.57;38.66;95358.81;5039966;28;8777;-38
2024/01/26 09:04:16;;;;;;;;;;;;;;;26.57;38.75;95369.09;5046421;28;9218;-38
2024/01/26 09:06:44;;;;;;;;;;;;;;;26.58;38.79;95363.06;5039906;28;9338;-38
2024/01/26 09:09:24;;;;;;;;;;;;;;;26.59;39.06;95361.84;5042513;28;9535;-39
2024/01/26 09:11:54;;;;;;;;;;;;;;;26.61;39.03;95364.09;5058018;28;9425;-38
2024/01/26 09:14:28;;;;;;;;;;;;;;;26.58;39.20;95365.06;5041780;28;7239;-38
2024/01/26 09:17:44;;;;;;;;;;;;;;;26.58;39.47;95365.84;5040620;28;8793;-40
2024/01/26 09:20:20;;;;;;;;;;;;;;;26.59;39.67;95364.59;5034036;28;8745;-38
2024/01/26 09:22:59;;;;;;;;;;;;;;;26.58;39.15;95362.31;5023651;28;9073;-38
2024/01/26 09:25:33;;;;;;;;;;;;;;;26.59;39.71;95363.84;5032065;28;9241;-39
2024/01/26 09:28:09;;;;;;;;;;;;;;;26.60;39.41;95370.88;5042406;28;7248;-38
2024/01/26 09:30:44;;;;;;;;;;;;;;;26.61;39.25;95373.13;5018298;28;9112;-38
2024/01/26 09:33:40;;;;;;;;;;;;;;;26.60;39.36;95381.91;5027907;28;7406;-39
2024/01/26 09:39:38;;;;;;;;;;;;;;;26.61;39.81;95378.66;4943063;28;9167;-43
2024/01/26 09:42:09;;;;;;;;;;;;;;;26.59;39.55;95372.13;4946484;28;8312;-37
2024/01/26 09:44:37;;;;;;;;;;;;;;;26.60;39.94;95368.13;4945754;28;7228;-37
2024/01/26 09:47:10;;;;;;;;;;;;;;;26.60;39.77;95368.13;4936704;28;7282;-37
2024/01/26 09:49:46;;;;;;;;;;;;;;;26.61;39.34;95377.91;4933861;29;7196;-37
2024/01/26 09:52:25;;;;;;;;;;;;;;;26.59;39.34;95370.13;4930012;28;7266;-37
2024/01/26 09:54:52;;;;;;;;;;;;;;;26.59;39.70;95372.13;4947439;28;7085;-37
2024/01/26 09:57:23;;;;;;;;;;;;;;;26.60;39.60;95373.66;4941359;28;7139;-37
2024/01/26 09:59:53;;;;;;;;;;;;;;;26.58;39.77;95370.59;4941329;28;9178;-37
2024/01/26 10:02:37;;;;;;;;;;;;;;;26.58;39.46;95385.16;4959920;28;9037;-37
2024/01/26 10:05:06;;;;;;;;;;;;;;;26.57;39.24;95380.13;4941128;28;7431;-37
2024/01/26 10:08:06;;;;;;;;;;;;;;;26.58;39.75;95384.38;4960070;28;7108;-37
2024/01/26 10:10:50;;;;;;;;;;;;;;;26.57;39.83;95375.38;4929056;29;7543;-37
2024/01/26 10:13:46;;;;;;;;;;;;;;;26.59;39.69;95386.69;4981318;28;7099;-37
2024/01/26 10:16:15;;;;;;;;;;;;;;;26.58;39.79;95379.63;4974797;28;8404;-37
2024/01/26 10:18:46;;;;;;;;;;;;;;;26.59;39.61;95377.63;4964800;28;7887;-37
2024/01/26 10:21:16;;;;;;;;;;;;;;;26.58;39.67;95370.59;4973821;28;7076;-37
2024/01/26 10:23:44;;;;;;;;;;;;;;;26.63;39.54;95369.88;4968478;28;8513;-37
2024/01/26 10:26:58;;;;;;;;;;;;;;;26.63;39.60;95356.09;4987195;28;7462;-37
2024/01/26 10:29:55;;;;;;;;;;;;;;;26.64;39.74;95347.31;4915260;29;9169;-37
2024/01/26 10:32:47;;;;;;;;;;;;;;;26.63;39.85;95353.31;4867174;29;7290;-37
2024/01/26 10:35:16;;;;;;;;;;;;;;;26.61;39.76;95351.06;4843924;29;7900;-37
2024/01/26 10:37:51;;;;;;;;;;;;;;;26.59;40.06;95353.56;4860116;29;7071;-37
2024/01/26 10:40:29;;;;;;;;;;;;;;;26.60;39.91;95346.78;4857022;29;7210;-37
2024/01/26 10:42:57;;;;;;;;;;;;;;;26.61;39.83;95347.53;4858856;29;7055;-37
2024/01/26 10:45:24;;;;;;;;;;;;;;;26.60;39.92;95349.53;4842628;29;6985;-37
2024/01/26 10:47:55;;;;;;;;;;;;;;;26.59;40.36;95342.53;4906854;29;7435;-37
2024/01/26 10:50:23;;;;;;;;;;;;;;;26.58;40.46;95349.28;4910436;29;7227;-38
2024/01/26 10:52:54;;;;;;;;;;;;;;;26.59;41.17;95341.78;4932243;28;8797;-38
2024/01/26 10:55:21;;;;;;;;;;;;;;;26.56;41.73;95337.22;4947370;28;7230;-38
2024/01/26 10:57:47;;;;;;;;;;;;;;;26.55;41.14;95327.47;4952950;28;7214;-39
2024/01/26 11:00:14;;;;;;;;;;;;;;;26.53;41.51;95321.69;4948084;29;9075;-38
2024/01/26 11:02:43;;;;;;;;;;;;;;;26.49;41.88;95330.16;4950783;29;8751;-39
2024/01/26 11:05:13;;;;;;;;;;;;;;;26.50;41.44;95322.66;4945718;28;7525;-38
2024/01/26 11:07:41;;;;;;;;;;;;;;;26.51;41.29;95318.66;5001575;28;9125;-39
2024/01/26 11:10:19;;;;;;;;;;;;;;;26.55;40.79;95325.47;5037967;28;8771;-39
2024/01/26 11:12:46;;;;;;;;;;;;;;;26.55;41.11;95314.41;5043357;28;8841;-40
2024/01/26 11:15:15;;;;;;;;;;;;;;;26.57;40.63;95319.44;5047963;28;7076;-40
2024/01/26 11:17:59;;;;;;;;;;;;;;;26.57;41.44;95308.41;5039701;28;7075;-42
2024/01/26 11:20:41;;;;;;;;;;;;;;;26.56;40.51;95304.13;5042863;28;7370;-39
2024/01/26 11:23:13;;;;;;;;;;;;;;;26.53;40.89;95292.09;5047480;28;9163;-39
2024/01/26 11:25:49;;;;;;;;;;;;;;;26.56;41.00;95293.09;5038741;28;7008;-39
2024/01/26 11:28:17;;;;;;;;;;;;;;;26.56;40.71;95299.34;5037779;28;9666;-39
2024/01/26 11:30:54;;;;;;;;;;;;;;;26.59;40.38;95297.63;5051914;28;7200;-38
2024/01/26 11:33:22;;;;;;;;;;;;;;;26.59;40.77;95298.38;5037419;28;8074;-40
2024/01/26 11:35:48;;;;;;;;;;;;;;;26.60;40.84;95283.31;5057904;28;7236;-39
2024/01/26 11:38:15;;;;;;;;;;;;;;;26.61;40.78;95282.09;5030718;28;9232;-39
2024/01/26 11:40:41;;;;;;;;;;;;;;;26.62;40.61;95277.31;5049034;28;8165;-39
2024/01/26 11:43:09;;;;;;;;;;;;;;;26.63;40.53;95265.03;5032015;28;9583;-39
2024/01/26 11:45:45;;;;;;;;;;;;;;;26.63;40.79;95265.03;5053409;28;7137;-38
2024/01/26 11:48:17;;;;;;;;;;;;;;;26.61;40.84;95273.81;5048027;28;7190;-39
2024/01/26 11:50:47;;;;;;;;;;;;;;;26.63;41.02;95274.06;5058917;28;7095;-38
2024/01/26 11:53:14;;;;;;;;;;;;;;;26.65;40.94;95273.56;5043411;28;7011;-38
2024/01/26 11:55:42;;;;;;;;;;;;;;;26.68;41.13;95270.56;5043944;28;9109;-38
2024/01/26 11:58:10;;;;;;;;;;;;;;;26.67;40.65;95271.03;5045902;28;6982;-39
2024/01/26 12:00:38;;;;;;;;;;;;;;;26.69;41.00;95274.06;5052768;28;7752;-39
2024/01/26 12:03:17;;;;;;;;;;;;;;;26.69;40.97;95271.31;5041709;28;7002;-41
2024/01/26 12:05:50;;;;;;;;;;;;;;;26.69;40.78;95263.78;5049844;28;8721;-40
2024/01/26 12:08:27;;;;;;;;;;;;;;;26.69;40.73;95263.78;5066137;28;9106;-39
2024/01/26 12:10:54;;;;;;;;;;;;;;;26.68;40.68;95267.06;5039130;28;7265;-39
2024/01/26 12:13:22;;;;;;;;;;;;;;;26.67;40.26;95271.03;5057521;28;9499;-39
2024/01/26 12:15:57;;;;;;;;;;;;;;;26.65;40.60;95268.03;5054555;28;7387;-38
2024/01/26 12:18:28;;;;;;;;;;;;;;;26.62;40.21;95266.28;5044472;28;6968;-38
2024/01/26 12:20:57;;;;;;;;;;;;;;;26.62;40.30;95275.28;5043521;28;7284;-40
2024/01/26 12:23:27;;;;;;;;;;;;;;;26.65;40.59;95268.03;5037499;28;6991;-40
2024/01/26 12:26:00;;;;;;;;;;;;;;;26.63;39.91;95274.06;5047745;28;7628;-38
2024/01/26 12:28:27;;;;;;;;;;;;;;;26.60;40.17;95271.53;5051874;28;7252;-40
2024/01/26 12:30:59;;;;;;;;;;;;;;;26.60;39.79;95288.09;5050791;28;7006;-40
2024/01/26 12:33:28;;;;;;;;;;;;;;;26.60;39.90;95282.59;5055298;28;8751;-39
2024/01/26 12:39:20;;;;;;;;;;;;;;;26.58;40.24;95283.06;5035858;28;7663;-39
2024/01/26 12:41:49;;;;;;;;;;;;;;;26.58;40.17;95285.06;5045647;28;8813;-40
2024/01/26 12:44:43;;;;;;;;;;;;;;;26.62;40.22;95285.59;5048879;28;7001;-39
2024/01/26 12:47:11;;;;;;;;;;;;;;;26.62;39.33;95286.34;5035161;28;7244;-38
2024/01/26 12:49:45;;;;;;;;;;;;;;;26.63;39.93;95287.84;5039770;28;7234;-39
2024/01/26 12:52:41;;;;;;;;;;;;;;;26.63;40.14;95278.81;5035768;28;7298;-41
2024/01/26 12:55:07;;;;;;;;;;;;;;;26.61;39.63;95273.03;5044621;28;7087;-39
2024/01/26 12:57:33;;;;;;;;;;;;;;;26.61;39.97;95273.03;5019673;28;7001;-39
2024/01/26 13:00:01;;;;;;;;;;;;;;;26.59;39.99;95270.78;5040994;28;7386;-39
2024/01/26 13:03:15;;;;;;;;;;;;;;;26.60;40.24;95277.06;5036628;28;7238;-39
2024/01/26 13:05:54;;;;;;;;;;;;;;;26.60;40.00;95277.81;4983644;28;9088;-39
2024/01/26 13:08:27;;;;;;;;;;;;;;;26.56;39.72;95268.25;4987205;28;8753;-42
2024/01/26 13:10:56;;;;;;;;;;;;;;;26.59;39.71;95264.50;4998210;28;7177;-55
2024/01/26 13:13:27;;;;;;;;;;;;;;;26.61;39.93;95268.28;5007067;28;7140;-55
2024/01/26 13:16:17;;;;;;;;;;;;;;;26.62;39.37;95258.75;4994178;28;7132;-55
2024/01/26 13:18:45;;;;;;;;;;;;;;;26.62;40.04;95258.75;4994252;28;7311;-56
2024/01/26 13:21:16;;;;;;;;;;;;;;;26.64;39.76;95261.03;5005033;28;7267;-55
2024/01/26 13:23:45;;;;;;;;;;;;;;;26.62;39.90;95264.25;4998933;28;7531;-55
2024/01/26 13:26:15;;;;;;;;;;;;;;;26.65;40.03;95265.28;4985322;28;7819;-55
2024/01/26 13:28:53;;;;;;;;;;;;;;;26.66;39.89;95272.31;5012865;28;7127;-55
2024/01/26 13:31:33;;;;;;;;;;;;;;;26.65;39.94;95251.47;4994073;28;7117;-55
2024/01/26 13:34:18;;;;;;;;;;;;;;;26.69;40.07;95260.25;4988009;28;7250;-54
2024/01/26 13:36:45;;;;;;;;;;;;;;;26.69;39.60;95255.50;4986508;28;9572;-53